Terminal Aerodrome Forecast
Issued by NWS

Home | Current Version | Previous Version | Text Only | Print | Product List | Glossary On
Versions: 1 2 3 4 5 6 7 8 9 10 11 12 13 14 15
000
FTUS45 KFGZ 051137
TAFPRC
TAF
KPRC 051137Z 0512/0612 20005KT P6SM BKN110
     FM051900 24009KT P6SM SCT080 SCT110
     FM060230 20005KT P6SM BKN100=

USA.gov is the U.S. government's official web portal to all federal, state and local government web resources and services.